sensor_id;sensor_type;location;lat;lon;timestamp;pressure;altitude;pressure_sealevel;temperature;humidity
818;BME280;391;51.052;6.954;2023-05-10T00:01:28;100171.00;;;14.84;99.82
818;BME280;391;51.052;6.954;2023-05-10T00:03:31;100170.16;;;14.86;99.84
818;BME280;391;51.052;6.954;2023-05-10T00:05:34;100165.78;;;14.83;99.48
818;BME280;391;51.052;6.954;2023-05-10T00:07:39;100177.13;;;14.79;99.74
818;BME280;391;51.052;6.954;2023-05-10T00:09:46;100054.50;;;14.20;99.72
818;BME280;391;51.052;6.954;2023-05-10T00:11:50;100174.53;;;14.90;99.65
818;BME280;391;51.052;6.954;2023-05-10T00:13:53;100159.53;;;14.49;99.91
818;BME280;391;51.052;6.954;2023-05-10T00:15:56;100169.25;;;14.73;100.00
818;BME280;391;51.052;6.954;2023-05-10T00:18:00;100169.25;;;14.80;99.96
818;BME280;391;51.052;6.954;2023-05-10T00:20:04;100171.00;;;14.78;100.00
818;BME280;391;51.052;6.954;2023-05-10T00:22:08;100170.13;;;14.76;100.00
818;BME280;391;51.052;6.954;2023-05-10T00:24:13;100170.16;;;14.89;100.00
818;BME280;391;51.052;6.954;2023-05-10T00:26:17;100164.03;;;14.83;100.00
818;BME280;391;51.052;6.954;2023-05-10T00:28:27;100166.63;;;14.79;100.00
818;BME280;391;51.052;6.954;2023-05-10T00:30:31;100160.50;;;14.81;100.00
818;BME280;391;51.052;6.954;2023-05-10T00:32:36;100162.28;;;14.92;100.00
818;BME280;391;51.052;6.954;2023-05-10T00:34:39;100168.41;;;15.00;99.86
818;BME280;391;51.052;6.954;2023-05-10T00:36:43;100156.16;;;14.88;99.95
818;BME280;391;51.052;6.954;2023-05-10T00:38:46;100138.66;;;14.86;99.86
818;BME280;391;51.052;6.954;2023-05-10T00:40:51;100161.41;;;14.97;99.86
818;BME280;391;51.052;6.954;2023-05-10T00:43:01;100161.44;;;15.05;99.76
818;BME280;391;51.052;6.954;2023-05-10T00:45:06;100153.56;;;15.05;99.60
818;BME280;391;51.052;6.954;2023-05-10T00:47:10;100160.56;;;15.09;99.21
818;BME280;391;51.052;6.954;2023-05-10T00:49:14;100162.31;;;15.05;99.37
818;BME280;391;51.052;6.954;2023-05-10T00:51:17;100157.03;;;14.89;99.19
818;BME280;391;51.052;6.954;2023-05-10T00:53:21;100163.09;;;14.68;100.00
818;BME280;391;51.052;6.954;2023-05-10T00:55:25;100161.41;;;14.85;100.00
818;BME280;391;51.052;6.954;2023-05-10T00:57:30;100162.28;;;14.86;100.00
818;BME280;391;51.052;6.954;2023-05-10T00:59:33;100164.03;;;14.87;100.00
818;BME280;391;51.052;6.954;2023-05-10T01:01:37;100163.19;;;15.01;100.00
818;BME280;391;51.052;6.954;2023-05-10T01:03:41;100162.31;;;15.07;99.75
818;BME280;391;51.052;6.954;2023-05-10T01:05:44;100160.56;;;15.09;99.32
818;BME280;391;51.052;6.954;2023-05-10T01:07:48;100165.78;;;14.97;99.48
818;BME280;391;51.052;6.954;2023-05-10T01:09:51;100168.41;;;15.00;99.87
818;BME280;391;51.052;6.954;2023-05-10T01:11:56;100167.56;;;15.05;99.75
818;BME280;391;51.052;6.954;2023-05-10T01:14:01;100164.94;;;15.04;99.70
818;BME280;391;51.052;6.954;2023-05-10T01:16:06;100162.31;;;15.10;99.53
818;BME280;391;51.052;6.954;2023-05-10T01:18:09;100169.31;;;15.05;99.62
818;BME280;391;51.052;6.954;2023-05-10T01:20:14;100170.19;;;15.08;99.39
818;BME280;391;51.052;6.954;2023-05-10T01:22:50;100132.53;;;14.91;100.00
818;BME280;391;51.052;6.954;2023-05-10T01:25:11;100160.56;;;15.01;99.56
818;BME280;391;51.052;6.954;2023-05-10T01:27:47;100172.75;;;14.87;99.52
818;BME280;391;51.052;6.954;2023-05-10T01:30:25;100163.97;;;14.74;100.00
818;BME280;391;51.052;6.954;2023-05-10T01:32:39;100171.88;;;14.82;100.00
818;BME280;391;51.052;6.954;2023-05-10T01:34:54;100064.94;;;14.02;100.00
818;BME280;391;51.052;6.954;2023-05-10T01:37:04;100170.09;;;14.72;100.00
818;BME280;391;51.052;6.954;2023-05-10T01:39:11;100170.13;;;14.81;100.00
818;BME280;391;51.052;6.954;2023-05-10T01:41:24;100179.75;;;14.80;99.78
818;BME280;391;51.052;6.954;2023-05-10T01:43:38;100181.53;;;14.86;99.86
818;BME280;391;51.052;6.954;2023-05-10T01:45:51;100178.91;;;14.91;99.77
818;BME280;391;51.052;6.954;2023-05-10T01:48:04;100176.28;;;14.86;99.33
818;BME280;391;51.052;6.954;2023-05-10T01:50:11;100177.16;;;14.87;99.06
818;BME280;391;51.052;6.954;2023-05-10T01:52:20;100175.41;;;14.89;98.86
818;BME280;391;51.052;6.954;2023-05-10T01:54:27;100184.16;;;14.91;98.69
818;BME280;391;51.052;6.954;2023-05-10T01:56:33;100149.97;;;14.63;98.19
818;BME280;391;51.052;6.954;2023-05-10T01:58:39;100181.50;;;14.72;98.21
818;BME280;391;51.052;6.954;2023-05-10T02:00:46;100176.19;;;14.65;98.50
818;BME280;391;51.052;6.954;2023-05-10T02:02:51;100182.34;;;14.68;98.19
818;BME280;391;51.052;6.954;2023-05-10T02:04:58;100179.72;;;14.68;98.05
818;BME280;391;51.052;6.954;2023-05-10T02:07:02;100170.97;;;14.66;98.02
818;BME280;391;51.052;6.954;2023-05-10T02:09:07;100180.59;;;14.66;97.78
818;BME280;391;51.052;6.954;2023-05-10T02:11:13;100177.09;;;14.67;97.62
818;BME280;391;51.052;6.954;2023-05-10T02:13:18;100180.59;;;14.66;97.75
818;BME280;391;51.052;6.954;2023-05-10T02:15:23;100177.09;;;14.65;97.62
818;BME280;391;51.052;6.954;2023-05-10T02:17:28;100184.97;;;14.65;97.17
818;BME280;391;51.052;6.954;2023-05-10T02:19:34;100185.84;;;14.72;97.33
818;BME280;391;51.052;6.954;2023-05-10T02:21:41;100190.22;;;14.71;97.27
818;BME280;391;51.052;6.954;2023-05-10T02:23:46;100195.50;;;14.76;97.27
818;BME280;391;51.052;6.954;2023-05-10T02:25:51;100193.78;;;14.82;96.92
818;BME280;391;51.052;6.954;2023-05-10T02:27:57;100195.53;;;14.85;96.86
818;BME280;391;51.052;6.954;2023-05-10T02:30:06;100194.63;;;14.81;96.33
818;BME280;391;51.052;6.954;2023-05-10T02:32:11;100199.88;;;14.84;96.75
818;BME280;391;51.052;6.954;2023-05-10T02:34:15;100195.53;;;14.85;96.71
818;BME280;391;51.052;6.954;2023-05-10T02:36:20;100194.66;;;14.83;96.65
818;BME280;391;51.052;6.954;2023-05-10T02:38:26;100198.16;;;14.87;96.70
818;BME280;391;51.052;6.954;2023-05-10T02:40:32;100201.66;;;14.90;96.45
818;BME280;391;51.052;6.954;2023-05-10T02:42:37;100209.53;;;14.95;96.22
818;BME280;391;51.052;6.954;2023-05-10T02:44:42;100204.28;;;14.95;96.39
818;BME280;391;51.052;6.954;2023-05-10T02:46:46;100206.06;;;15.02;96.35
818;BME280;391;51.052;6.954;2023-05-10T02:48:50;100207.84;;;15.03;96.44
818;BME280;391;51.052;6.954;2023-05-10T02:50:54;100206.06;;;15.05;96.45
818;BME280;391;51.052;6.954;2023-05-10T02:53:00;100209.59;;;15.11;96.29
818;BME280;391;51.052;6.954;2023-05-10T02:55:09;100207.84;;;15.13;96.19
818;BME280;391;51.052;6.954;2023-05-10T02:57:16;100206.09;;;15.15;96.16
818;BME280;391;51.052;6.954;2023-05-10T02:59:21;100209.59;;;15.19;96.01
818;BME280;391;51.052;6.954;2023-05-10T03:01:25;100214.84;;;15.19;95.98
818;BME280;391;51.052;6.954;2023-05-10T03:03:28;100213.09;;;15.25;95.92
818;BME280;391;51.052;6.954;2023-05-10T03:05:32;100214.00;;;15.27;96.14
818;BME280;391;51.052;6.954;2023-05-10T03:07:37;100207.88;;;15.31;96.03
818;BME280;391;51.052;6.954;2023-05-10T03:09:41;100212.25;;;15.37;95.96
818;BME280;391;51.052;6.954;2023-05-10T03:11:55;100207.88;;;15.33;95.81
818;BME280;391;51.052;6.954;2023-05-10T03:14:09;100205.22;;;15.28;95.79
818;BME280;391;51.052;6.954;2023-05-10T03:16:15;100211.34;;;15.29;95.90
818;BME280;391;51.052;6.954;2023-05-10T03:18:28;100215.75;;;15.36;96.13
818;BME280;391;51.052;6.954;2023-05-10T03:20:36;100216.66;;;15.44;96.03
818;BME280;391;51.052;6.954;2023-05-10T03:22:44;100217.50;;;15.46;95.69
818;BME280;391;51.052;6.954;2023-05-10T03:24:48;100209.63;;;15.43;95.85
818;BME280;391;51.052;6.954;2023-05-10T03:26:56;100218.44;;;15.50;95.69
818;BME280;391;51.052;6.954;2023-05-10T03:29:04;100222.75;;;15.43;95.84
818;BME280;391;51.052;6.954;2023-05-10T03:31:08;100218.41;;;15.44;95.94
818;BME280;391;51.052;6.954;2023-05-10T03:33:12;100221.88;;;15.43;95.39
818;BME280;391;51.052;6.954;2023-05-10T03:35:19;100227.13;;;15.35;95.51
818;BME280;391;51.052;6.954;2023-05-10T03:37:22;100202.59;;;15.18;95.64
818;BME280;391;51.052;6.954;2023-05-10T03:39:26;100226.25;;;15.36;95.46
818;BME280;391;51.052;6.954;2023-05-10T03:41:33;100228.00;;;15.32;95.40
818;BME280;391;51.052;6.954;2023-05-10T03:43:38;100128.97;;;14.65;95.33
818;BME280;391;51.052;6.954;2023-05-10T03:45:43;100231.47;;;15.16;95.25
818;BME280;391;51.052;6.954;2023-05-10T03:47:46;100228.84;;;15.09;95.60
818;BME280;391;51.052;6.954;2023-05-10T03:49:50;100234.94;;;15.06;95.74
818;BME280;391;51.052;6.954;2023-05-10T03:51:53;100237.56;;;15.06;95.79
818;BME280;391;51.052;6.954;2023-05-10T03:53:57;100242.84;;;15.11;95.92
818;BME280;391;51.052;6.954;2023-05-10T03:56:00;100240.22;;;15.14;95.77
818;BME280;391;51.052;6.954;2023-05-10T03:58:03;100232.38;;;15.18;96.12
818;BME280;391;51.052;6.954;2023-05-10T04:00:11;100239.38;;;15.21;95.94
818;BME280;391;51.052;6.954;2023-05-10T04:02:17;100236.72;;;15.16;95.76
818;BME280;391;51.052;6.954;2023-05-10T04:04:21;100235.00;;;15.18;95.82
818;BME280;391;51.052;6.954;2023-05-10T04:06:25;100236.75;;;15.21;95.81
818;BME280;391;51.052;6.954;2023-05-10T04:08:30;100242.88;;;15.26;95.79
818;BME280;391;51.052;6.954;2023-05-10T04:10:33;100235.91;;;15.31;95.53
818;BME280;391;51.052;6.954;2023-05-10T04:12:37;100242.91;;;15.36;95.65
818;BME280;391;51.052;6.954;2023-05-10T04:14:40;100236.75;;;15.39;95.58
818;BME280;391;51.052;6.954;2023-05-10T04:16:45;100232.38;;;15.24;95.28
818;BME280;391;51.052;6.954;2023-05-10T04:18:52;100242.88;;;15.21;95.48
818;BME280;391;51.052;6.954;2023-05-10T04:20:55;100238.50;;;15.22;95.55
818;BME280;391;51.052;6.954;2023-05-10T04:23:02;100238.50;;;15.25;95.69
818;BME280;391;51.052;6.954;2023-05-10T04:25:09;100228.88;;;15.24;95.85
818;BME280;391;51.052;6.954;2023-05-10T04:27:12;100234.13;;;15.24;95.79
818;BME280;391;51.052;6.954;2023-05-10T04:29:16;100234.13;;;15.21;95.90
818;BME280;391;51.052;6.954;2023-05-10T04:31:19;100228.81;;;15.07;96.02
818;BME280;391;51.052;6.954;2023-05-10T04:33:25;100235.81;;;15.10;96.22
818;BME280;391;51.052;6.954;2023-05-10T04:35:28;100240.19;;;15.06;96.27
818;BME280;391;51.052;6.954;2023-05-10T04:37:31;100234.00;;;14.88;96.99
818;BME280;391;51.052;6.954;2023-05-10T04:39:35;100243.63;;;14.90;97.36
818;BME280;391;51.052;6.954;2023-05-10T04:41:38;100242.78;;;14.91;97.52
818;BME280;391;51.052;6.954;2023-05-10T04:43:41;100251.53;;;14.95;97.65
818;BME280;391;51.052;6.954;2023-05-10T04:45:45;100245.41;;;14.90;97.38
818;BME280;391;51.052;6.954;2023-05-10T04:47:48;100245.41;;;14.94;97.50
818;BME280;391;51.052;6.954;2023-05-10T04:49:53;100249.75;;;14.88;97.53
818;BME280;391;51.052;6.954;2023-05-10T04:51:56;100154.09;;;14.08;98.29
818;BME280;391;51.052;6.954;2023-05-10T04:53:59;100245.28;;;14.55;98.47
818;BME280;391;51.052;6.954;2023-05-10T04:56:07;100251.44;;;14.64;98.84
818;BME280;391;51.052;6.954;2023-05-10T04:58:11;100255.78;;;14.62;98.62
818;BME280;391;51.052;6.954;2023-05-10T05:00:15;100262.81;;;14.66;98.10
818;BME280;391;51.052;6.954;2023-05-10T05:02:19;100264.53;;;14.60;98.69
818;BME280;391;51.052;6.954;2023-05-10T05:04:22;100267.09;;;14.51;98.94
818;BME280;391;51.052;6.954;2023-05-10T05:06:27;100263.47;;;14.32;99.55
818;BME280;391;51.052;6.954;2023-05-10T05:08:30;100255.75;;;14.53;99.66
818;BME280;391;51.052;6.954;2023-05-10T05:10:34;100260.09;;;14.47;99.52
818;BME280;391;51.052;6.954;2023-05-10T05:12:37;100263.63;;;14.53;99.25
818;BME280;391;51.052;6.954;2023-05-10T05:14:41;100269.72;;;14.48;99.13
818;BME280;391;51.052;6.954;2023-05-10T05:16:44;100274.97;;;14.48;99.39
818;BME280;391;51.052;6.954;2023-05-10T05:18:47;100282.81;;;14.49;99.63
818;BME280;391;51.052;6.954;2023-05-10T05:20:51;100290.50;;;14.22;99.46
818;BME280;391;51.052;6.954;2023-05-10T05:22:55;100282.63;;;14.20;100.00
818;BME280;391;51.052;6.954;2023-05-10T05:24:59;100273.19;;;14.44;100.00
818;BME280;391;51.052;6.954;2023-05-10T05:27:04;100289.00;;;14.62;99.40
818;BME280;391;51.052;6.954;2023-05-10T05:29:07;100282.88;;;14.58;99.08
818;BME280;391;51.052;6.954;2023-05-10T05:31:11;100289.91;;;14.64;99.11
818;BME280;391;51.052;6.954;2023-05-10T05:33:14;100291.63;;;14.62;98.46
818;BME280;391;51.052;6.954;2023-05-10T05:35:18;100289.03;;;14.68;98.29
818;BME280;391;51.052;6.954;2023-05-10T05:37:22;100295.19;;;14.70;98.01
818;BME280;391;51.052;6.954;2023-05-10T05:39:28;100291.63;;;14.57;98.27
818;BME280;391;51.052;6.954;2023-05-10T05:41:31;100296.91;;;14.63;98.11
818;BME280;391;51.052;6.954;2023-05-10T05:43:34;100299.50;;;14.62;97.64
818;BME280;391;51.052;6.954;2023-05-10T05:45:39;100306.47;;;14.55;97.60
818;BME280;391;51.052;6.954;2023-05-10T05:47:43;100303.84;;;14.55;97.58
818;BME280;391;51.052;6.954;2023-05-10T05:49:46;100301.28;;;14.61;97.47
818;BME280;391;51.052;6.954;2023-05-10T05:51:49;100313.53;;;14.61;97.46
818;BME280;391;51.052;6.954;2023-05-10T05:53:53;100313.50;;;14.62;97.19
818;BME280;391;51.052;6.954;2023-05-10T05:55:58;100301.28;;;14.61;97.39
818;BME280;391;51.052;6.954;2023-05-10T05:58:02;100308.31;;;14.67;97.01
818;BME280;391;51.052;6.954;2023-05-10T06:00:06;100315.22;;;14.56;96.53
818;BME280;391;51.052;6.954;2023-05-10T06:02:16;100312.66;;;14.65;96.77
818;BME280;391;51.052;6.954;2023-05-10T06:04:19;100314.41;;;14.64;96.56
818;BME280;391;51.052;6.954;2023-05-10T06:06:23;100308.31;;;14.67;96.23
818;BME280;391;51.052;6.954;2023-05-10T06:08:26;100324.09;;;14.77;96.08
818;BME280;391;51.052;6.954;2023-05-10T06:10:30;100319.75;;;14.82;95.89
818;BME280;391;51.052;6.954;2023-05-10T06:12:34;100327.59;;;14.81;95.30
818;BME280;391;51.052;6.954;2023-05-10T06:14:38;100296.91;;;14.63;95.44
818;BME280;391;51.052;6.954;2023-05-10T06:16:41;100336.31;;;14.69;95.19
818;BME280;391;51.052;6.954;2023-05-10T06:18:45;100332.81;;;14.70;95.79
818;BME280;391;51.052;6.954;2023-05-10T06:20:49;100336.38;;;14.81;95.48
818;BME280;391;51.052;6.954;2023-05-10T06:22:52;100340.81;;;14.95;95.68
818;BME280;391;51.052;6.954;2023-05-10T06:24:55;100344.28;;;14.94;95.29
818;BME280;391;51.052;6.954;2023-05-10T06:27:01;100344.31;;;14.95;95.46
818;BME280;391;51.052;6.954;2023-05-10T06:29:07;100348.66;;;14.92;94.63
818;BME280;391;51.052;6.954;2023-05-10T06:31:10;100241.59;;;14.30;94.72
818;BME280;391;51.052;6.954;2023-05-10T06:33:14;100347.78;;;14.90;94.77
818;BME280;391;51.052;6.954;2023-05-10T06:35:18;100354.75;;;14.80;94.64
818;BME280;391;51.052;6.954;2023-05-10T06:37:22;100356.44;;;14.73;95.01
818;BME280;391;51.052;6.954;2023-05-10T06:39:25;100345.00;;;14.61;95.48
818;BME280;391;51.052;6.954;2023-05-10T06:41:28;100358.22;;;14.76;95.33
818;BME280;391;51.052;6.954;2023-05-10T06:43:32;100349.50;;;14.84;95.23
818;BME280;391;51.052;6.954;2023-05-10T06:45:37;100360.06;;;14.95;95.06
818;BME280;391;51.052;6.954;2023-05-10T06:47:40;100358.31;;;15.00;94.88
818;BME280;391;51.052;6.954;2023-05-10T06:49:44;100360.03;;;14.94;94.93
818;BME280;391;51.052;6.954;2023-05-10T06:51:47;100355.47;;;14.58;95.63
818;BME280;391;51.052;6.954;2023-05-10T06:53:51;100365.19;;;14.72;96.45
818;BME280;391;51.052;6.954;2023-05-10T06:55:55;100367.66;;;14.50;96.62
818;BME280;391;51.052;6.954;2023-05-10T06:57:58;100371.19;;;14.56;97.06
818;BME280;391;51.052;6.954;2023-05-10T07:00:02;100375.56;;;14.51;97.36
818;BME280;391;51.052;6.954;2023-05-10T07:02:08;100374.56;;;14.36;98.11
818;BME280;391;51.052;6.954;2023-05-10T07:04:12;100371.97;;;14.42;98.57
818;BME280;391;51.052;6.954;2023-05-10T07:06:16;100372.03;;;14.51;98.88
818;BME280;391;51.052;6.954;2023-05-10T07:08:34;100361.47;;;14.43;99.27
818;BME280;391;51.052;6.954;2023-05-10T07:10:37;100371.25;;;14.61;98.77
818;BME280;391;51.052;6.954;2023-05-10T07:12:41;100371.19;;;14.56;99.31
818;BME280;391;51.052;6.954;2023-05-10T07:14:44;100372.97;;;14.62;99.26
818;BME280;391;51.052;6.954;2023-05-10T07:16:48;100378.25;;;14.65;99.21
818;BME280;391;51.052;6.954;2023-05-10T07:18:53;100376.38;;;14.49;99.80
818;BME280;391;51.052;6.954;2023-05-10T07:20:57;100372.81;;;14.38;100.00
818;BME280;391;51.052;6.954;2023-05-10T07:23:00;100376.44;;;14.52;100.00
818;BME280;391;51.052;6.954;2023-05-10T07:25:05;100378.19;;;14.54;100.00
818;BME280;391;51.052;6.954;2023-05-10T07:27:08;100380.00;;;14.61;100.00
818;BME280;391;51.052;6.954;2023-05-10T07:29:12;100371.25;;;14.64;100.00
818;BME280;391;51.052;6.954;2023-05-10T07:31:15;100379.19;;;14.74;100.00
818;BME280;391;51.052;6.954;2023-05-10T07:33:19;100386.22;;;14.81;99.75
818;BME280;391;51.052;6.954;2023-05-10T07:35:24;100381.94;;;14.93;99.72
818;BME280;391;51.052;6.954;2023-05-10T07:37:27;100386.25;;;14.88;98.96
818;BME280;391;51.052;6.954;2023-05-10T07:39:30;100391.47;;;14.78;99.38
818;BME280;391;51.052;6.954;2023-05-10T07:41:34;100384.50;;;14.82;99.63
818;BME280;391;51.052;6.954;2023-05-10T07:43:37;100390.59;;;14.81;99.35
818;BME280;391;51.052;6.954;2023-05-10T07:45:40;100347.63;;;14.65;99.20
818;BME280;391;51.052;6.954;2023-05-10T07:47:44;100385.41;;;14.92;99.09
818;BME280;391;51.052;6.954;2023-05-10T07:49:47;100384.56;;;14.96;99.17
818;BME280;391;51.052;6.954;2023-05-10T07:51:52;100392.47;;;15.06;98.83
818;BME280;391;51.052;6.954;2023-05-10T07:53:55;100385.47;;;15.02;98.77
818;BME280;391;51.052;6.954;2023-05-10T07:56:20;100390.72;;;14.96;98.64
818;BME280;391;51.052;6.954;2023-05-10T07:58:24;100395.94;;;14.98;98.83
818;BME280;391;51.052;6.954;2023-05-10T08:00:28;100390.75;;;15.07;98.70
818;BME280;391;51.052;6.954;2023-05-10T08:02:32;100395.16;;;15.14;98.62
818;BME280;391;51.052;6.954;2023-05-10T08:04:36;100380.25;;;15.08;98.38
818;BME280;391;51.052;6.954;2023-05-10T08:06:40;100386.41;;;15.16;98.46
818;BME280;391;51.052;6.954;2023-05-10T08:08:45;100385.50;;;15.10;97.88
818;BME280;391;51.052;6.954;2023-05-10T08:10:51;100403.06;;;15.17;98.33
818;BME280;391;51.052;6.954;2023-05-10T08:12:54;100399.59;;;15.27;98.33
818;BME280;391;51.052;6.954;2023-05-10T08:14:57;100399.56;;;15.21;97.69
818;BME280;391;51.052;6.954;2023-05-10T08:17:01;100403.09;;;15.21;97.85
818;BME280;391;51.052;6.954;2023-05-10T08:19:04;100404.88;;;15.31;97.80
818;BME280;391;51.052;6.954;2023-05-10T08:21:08;100403.16;;;15.40;97.62
818;BME280;391;51.052;6.954;2023-05-10T08:23:13;100402.28;;;15.45;97.49
818;BME280;391;51.052;6.954;2023-05-10T08:25:17;100404.09;;;15.49;97.21
818;BME280;391;51.052;6.954;2023-05-10T08:27:21;100386.53;;;15.45;97.16
818;BME280;391;51.052;6.954;2023-05-10T08:29:24;100412.91;;;15.65;97.17
818;BME280;391;51.052;6.954;2023-05-10T08:31:31;100413.78;;;15.65;95.99
818;BME280;391;51.052;6.954;2023-05-10T08:33:35;100404.91;;;15.42;95.22
818;BME280;391;51.052;6.954;2023-05-10T08:35:38;100418.94;;;15.41;95.66
818;BME280;391;51.052;6.954;2023-05-10T08:37:41;100409.25;;;15.31;95.74
818;BME280;391;51.052;6.954;2023-05-10T08:39:45;100415.41;;;15.34;95.39
818;BME280;391;51.052;6.954;2023-05-10T08:41:53;100418.06;;;15.41;95.78
818;BME280;391;51.052;6.954;2023-05-10T08:43:57;100418.97;;;15.49;95.06
818;BME280;391;51.052;6.954;2023-05-10T08:46:01;100423.25;;;15.30;94.93
818;BME280;391;51.052;6.954;2023-05-10T08:48:06;100423.28;;;15.36;95.08
818;BME280;391;51.052;6.954;2023-05-10T08:50:10;100418.03;;;15.42;94.99
818;BME280;391;51.052;6.954;2023-05-10T08:52:15;100425.88;;;15.33;93.86
818;BME280;391;51.052;6.954;2023-05-10T08:54:19;100428.56;;;15.42;94.75
818;BME280;391;51.052;6.954;2023-05-10T08:56:23;100428.53;;;15.39;94.33
818;BME280;391;51.052;6.954;2023-05-10T08:58:28;100443.41;;;15.38;94.23
818;BME280;391;51.052;6.954;2023-05-10T09:00:33;100435.50;;;15.32;94.28
818;BME280;391;51.052;6.954;2023-05-10T09:02:37;100436.38;;;15.30;94.02
818;BME280;391;51.052;6.954;2023-05-10T09:04:40;100442.59;;;15.46;94.06
818;BME280;391;51.052;6.954;2023-05-10T09:06:44;100444.41;;;15.60;93.58
818;BME280;391;51.052;6.954;2023-05-10T09:08:47;100436.53;;;15.56;92.49
818;BME280;391;51.052;6.954;2023-05-10T09:10:51;100437.44;;;15.64;92.35
818;BME280;391;51.052;6.954;2023-05-10T09:12:56;100440.09;;;15.77;92.43
818;BME280;391;51.052;6.954;2023-05-10T09:15:03;100439.28;;;16.00;92.53
818;BME280;391;51.052;6.954;2023-05-10T09:17:08;100440.16;;;16.03;92.39
818;BME280;391;51.052;6.954;2023-05-10T09:19:12;100445.41;;;15.97;92.27
818;BME280;391;51.052;6.954;2023-05-10T09:21:17;100448.09;;;16.05;92.11
818;BME280;391;51.052;6.954;2023-05-10T09:23:20;100445.44;;;16.08;92.21
818;BME280;391;51.052;6.954;2023-05-10T09:25:24;100455.06;;;16.06;91.05
818;BME280;391;51.052;6.954;2023-05-10T09:27:27;100466.47;;;15.97;91.23
818;BME280;391;51.052;6.954;2023-05-10T09:29:39;100428.75;;;15.87;91.47
818;BME280;391;51.052;6.954;2023-05-10T09:31:48;100454.13;;;15.81;90.90
818;BME280;391;51.052;6.954;2023-05-10T09:33:53;100460.28;;;15.87;91.60
818;BME280;391;51.052;6.954;2023-05-10T09:36:06;100453.28;;;15.96;91.48
818;BME280;391;51.052;6.954;2023-05-10T09:38:10;100478.63;;;15.71;91.65
818;BME280;391;51.052;6.954;2023-05-10T09:40:14;100469.91;;;15.75;92.90
818;BME280;391;51.052;6.954;2023-05-10T09:42:18;100466.44;;;15.85;92.86
818;BME280;391;51.052;6.954;2023-05-10T09:44:21;100473.41;;;15.77;92.67
818;BME280;391;51.052;6.954;2023-05-10T09:46:25;100463.78;;;15.80;93.23
818;BME280;391;51.052;6.954;2023-05-10T09:48:30;100469.88;;;15.73;92.95
818;BME280;391;51.052;6.954;2023-05-10T09:50:33;100473.31;;;15.57;93.32
818;BME280;391;51.052;6.954;2023-05-10T09:52:46;100472.50;;;15.66;93.58
818;BME280;391;51.052;6.954;2023-05-10T09:54:53;100482.84;;;15.45;94.18
818;BME280;391;51.052;6.954;2023-05-10T09:56:56;100471.50;;;15.46;94.74
818;BME280;391;51.052;6.954;2023-05-10T09:59:03;100486.44;;;15.54;95.10
818;BME280;391;51.052;6.954;2023-05-10T10:01:10;100487.31;;;15.52;94.24
818;BME280;391;51.052;6.954;2023-05-10T10:03:15;100480.34;;;15.57;93.99
818;BME280;391;51.052;6.954;2023-05-10T10:05:20;100483.81;;;15.50;93.22
818;BME280;391;51.052;6.954;2023-05-10T10:07:24;100481.13;;;15.45;92.65
818;BME280;391;51.052;6.954;2023-05-10T10:09:28;100482.13;;;15.65;93.12
818;BME280;391;51.052;6.954;2023-05-10T10:11:33;100488.28;;;15.76;93.52
818;BME280;391;51.052;6.954;2023-05-10T10:13:37;100489.22;;;15.91;93.34
818;BME280;391;51.052;6.954;2023-05-10T10:15:42;100487.47;;;15.88;92.92
818;BME280;391;51.052;6.954;2023-05-10T10:17:46;100483.00;;;15.70;91.64
818;BME280;391;51.052;6.954;2023-05-10T10:19:51;100484.72;;;15.64;91.54
818;BME280;391;51.052;6.954;2023-05-10T10:21:56;100484.72;;;15.59;90.79
818;BME280;391;51.052;6.954;2023-05-10T10:24:01;100482.16;;;15.74;90.55
818;BME280;391;51.052;6.954;2023-05-10T10:26:07;100491.81;;;15.83;90.04
818;BME280;391;51.052;6.954;2023-05-10T10:28:21;100491.81;;;15.72;89.77
818;BME280;391;51.052;6.954;2023-05-10T10:30:34;100487.44;;;15.76;89.87
818;BME280;391;51.052;6.954;2023-05-10T10:32:55;100382.16;;;15.43;89.48
818;BME280;391;51.052;6.954;2023-05-10T10:35:11;100487.53;;;16.17;89.52
818;BME280;391;51.052;6.954;2023-05-10T10:37:16;100491.06;;;16.22;89.21
818;BME280;391;51.052;6.954;2023-05-10T10:39:20;100489.34;;;16.27;88.75
818;BME280;391;51.052;6.954;2023-05-10T10:41:28;100499.81;;;16.07;87.72
818;BME280;391;51.052;6.954;2023-05-10T10:43:32;100495.31;;;15.80;87.71
818;BME280;391;51.052;6.954;2023-05-10T10:45:39;100492.66;;;15.68;87.83
818;BME280;391;51.052;6.954;2023-05-10T10:47:44;100502.31;;;15.69;88.80
818;BME280;391;51.052;6.954;2023-05-10T10:49:49;100494.44;;;15.83;88.99
818;BME280;391;51.052;6.954;2023-05-10T10:52:12;100491.88;;;15.98;88.82
818;BME280;391;51.052;6.954;2023-05-10T10:54:26;100501.53;;;16.05;88.06
818;BME280;391;51.052;6.954;2023-05-10T10:56:30;100501.56;;;16.13;87.74
818;BME280;391;51.052;6.954;2023-05-10T10:58:37;100502.47;;;16.31;87.43
818;BME280;391;51.052;6.954;2023-05-10T11:00:41;100496.34;;;16.32;87.44
818;BME280;391;51.052;6.954;2023-05-10T11:02:48;100499.84;;;16.40;86.79
818;BME280;391;51.052;6.954;2023-05-10T11:04:51;100497.22;;;16.47;85.87
818;BME280;391;51.052;6.954;2023-05-10T11:07:16;100504.25;;;16.43;83.76
818;BME280;391;51.052;6.954;2023-05-10T11:09:24;100499.84;;;16.50;84.11
818;BME280;391;51.052;6.954;2023-05-10T11:11:28;100498.13;;;16.49;83.29
818;BME280;391;51.052;6.954;2023-05-10T11:13:34;100507.78;;;16.53;83.01
818;BME280;391;51.052;6.954;2023-05-10T11:15:39;100509.50;;;16.48;83.09
818;BME280;391;51.052;6.954;2023-05-10T11:17:43;100510.38;;;16.43;82.97
818;BME280;391;51.052;6.954;2023-05-10T11:20:08;100510.38;;;16.50;82.50
818;BME280;391;51.052;6.954;2023-05-10T11:22:13;100507.78;;;16.53;81.92
818;BME280;391;51.052;6.954;2023-05-10T11:24:18;100510.41;;;16.51;81.65
818;BME280;391;51.052;6.954;2023-05-10T11:26:23;100516.59;;;16.64;81.61
818;BME280;391;51.052;6.954;2023-05-10T11:28:27;100515.66;;;16.51;80.80
818;BME280;391;51.052;6.954;2023-05-10T11:30:31;100523.53;;;16.40;81.54
818;BME280;391;51.052;6.954;2023-05-10T11:32:36;100534.06;;;16.36;81.77